Terminal Aerodrome Forecast
Issued by NWS

Home | Current Version | Previous Version | Text Only | Print | Product List | Glossary On
Versions: 1 2 3 4 5 6 7 8 9 10 11 12 13 14 15 16 17 18 19
000
FTUS41 KBTV 041730
TAFSLK
TAF
KSLK 041730Z 0418/0518 25010G18KT P6SM OVC015
     FM042300 25010KT P6SM OVC025
     FM050300 26010KT P6SM SCT025 BKN035
     FM050900 28007KT P6SM SCT040
     FM051500 32006KT P6SM SCT050=

USA.gov is the U.S. government's official web portal to all federal, state and local government web resources and services.